createdAt,value
2023-01-29T00:02:52.372Z,101555.13
2023-01-29T00:05:55.462Z,101555.97
2023-01-29T00:08:58.976Z,101552.16
2023-01-29T00:12:02.375Z,101560.66
2023-01-29T00:15:10.743Z,101568.66
2023-01-29T00:18:14.726Z,101565.16
2023-01-29T00:21:20.186Z,101575.25
2023-01-29T00:24:25.857Z,101567.19
2023-01-29T00:27:29.961Z,101567.19
2023-01-29T00:30:33.766Z,101573.72
2023-01-29T00:33:36.984Z,101568.66
2023-01-29T00:36:40.139Z,101573.31
2023-01-29T00:39:48.097Z,101578.28
2023-01-29T00:43:10.589Z,101571.00
2023-01-29T00:46:14.767Z,101579.94
2023-01-29T00:49:18.069Z,101578.38
2023-01-29T00:52:27.082Z,101568.81
2023-01-29T00:55:30.336Z,101578.19
2023-01-29T00:58:36.079Z,101573.56
2023-01-29T01:01:59.027Z,101586.38
2023-01-29T01:05:06.335Z,101576.91
2023-01-29T01:08:29.548Z,101578.88
2023-01-29T01:11:34.357Z,101576.63
2023-01-29T01:14:37.476Z,101579.25
2023-01-29T01:17:40.525Z,101574.28
2023-01-29T01:20:51.707Z,101578.78
2023-01-29T01:23:54.775Z,101590.66
2023-01-29T01:26:57.873Z,101577.84
2023-01-29T01:30:01.093Z,101582.84
2023-01-29T01:33:06.802Z,101571.81
2023-01-29T01:36:10.062Z,101576.78
2023-01-29T01:39:13.558Z,101580.59
2023-01-29T01:42:16.755Z,101575.25
2023-01-29T01:45:26.148Z,101598.25
2023-01-29T01:48:30.760Z,101598.50
2023-01-29T01:51:39.391Z,101590.22
2023-01-29T01:54:44.674Z,101585.47
2023-01-29T01:57:53.125Z,101602.09
2023-01-29T02:00:57.502Z,101594.75
2023-01-29T02:04:26.372Z,101597.13
2023-01-29T02:07:48.161Z,101590.94
2023-01-29T02:10:51.431Z,101599.72
2023-01-29T02:13:54.756Z,101606.50
2023-01-29T02:17:02.234Z,101592.25
2023-01-29T02:20:18.150Z,101615.59
2023-01-29T02:23:43.496Z,101618.47
2023-01-29T02:26:59.925Z,101598.19
2023-01-29T02:30:36.259Z,101599.28
2023-01-29T02:33:59.562Z,101612.69
2023-01-29T02:37:09.863Z,101632.25
2023-01-29T02:40:37.229Z,101631.28
2023-01-29T02:43:40.353Z,101621.78
2023-01-29T02:46:51.993Z,101629.63
2023-01-29T02:50:26.020Z,101613.88
2023-01-29T02:53:35.324Z,101646.63
2023-01-29T02:56:51.934Z,101634.03
2023-01-29T03:00:10.659Z,101651.25
2023-01-29T03:03:17.892Z,101663.34
2023-01-29T03:06:28.551Z,101646.47
2023-01-29T03:09:39.835Z,101641.84
2023-01-29T03:12:47.352Z,101643.88
2023-01-29T03:16:01.753Z,101647.31
2023-01-29T03:19:36.895Z,101652.09
2023-01-29T03:22:51.905Z,101651.13
2023-01-29T03:26:18.316Z,101667.28
2023-01-29T03:29:40.996Z,101655.50
2023-01-29T03:32:47.036Z,101656.34
2023-01-29T03:35:56.994Z,101654.69
2023-01-29T03:39:00.507Z,101651.94
2023-01-29T03:42:22.574Z,101670.94
2023-01-29T03:46:08.664Z,101664.91
2023-01-29T03:49:19.783Z,101661.22
2023-01-29T03:52:39.126Z,101676.78
2023-01-29T03:55:59.894Z,101672.00
2023-01-29T03:59:12.071Z,101664.91
2023-01-29T04:02:49.272Z,101654.56
2023-01-29T04:05:52.647Z,101659.66
2023-01-29T04:09:11.012Z,101656.22
2023-01-29T04:12:26.966Z,101666.66
2023-01-29T04:15:34.882Z,101659.44
2023-01-29T04:18:37.919Z,101657.66
2023-01-29T04:21:45.151Z,101653.16
2023-01-29T04:24:50.329Z,101659.44
2023-01-29T04:28:18.387Z,101657.41
2023-01-29T04:31:25.347Z,101660.38
2023-01-29T04:34:35.601Z,101668.94
2023-01-29T04:37:45.913Z,101676.41
2023-01-29T04:40:57.253Z,101669.63
2023-01-29T04:44:15.441Z,101666.81
2023-01-29T04:47:43.586Z,101672.63
2023-01-29T04:50:55.835Z,101669.63
2023-01-29T04:54:14.121Z,101665.25
2023-01-29T04:57:25.646Z,101665.59
2023-01-29T05:00:35.136Z,101663.34
2023-01-29T05:03:40.815Z,101669.88
2023-01-29T05:06:45.109Z,101668.69
2023-01-29T05:09:49.733Z,101682.00
2023-01-29T05:13:00.691Z,101679.84
2023-01-29T05:16:21.891Z,101689.81
2023-01-29T05:19:24.848Z,101688.88
2023-01-29T05:22:28.095Z,101695.28
2023-01-29T05:25:33.302Z,101693.63
2023-01-29T05:28:36.242Z,101684.59
2023-01-29T05:31:39.404Z,101703.00
2023-01-29T05:34:42.715Z,101697.41
2023-01-29T05:37:45.908Z,101700.63
2023-01-29T05:41:08.510Z,101698.38
2023-01-29T05:44:11.481Z,101705.59
2023-01-29T05:47:14.294Z,101696.59
2023-01-29T05:50:17.561Z,101713.78
2023-01-29T05:53:20.612Z,101712.41
2023-01-29T05:56:23.646Z,101713.09
2023-01-29T05:59:26.573Z,101715.81
2023-01-29T06:02:32.673Z,101717.81
2023-01-29T06:05:38.729Z,101723.78
2023-01-29T06:08:41.956Z,101722.56
2023-01-29T06:11:45.085Z,101724.13
2023-01-29T06:14:48.032Z,101716.53
2023-01-29T06:17:50.725Z,101718.31
2023-01-29T06:20:53.797Z,101731.03
2023-01-29T06:23:56.863Z,101732.78
2023-01-29T06:26:59.956Z,101736.59
2023-01-29T06:30:04.705Z,101735.75
2023-01-29T06:33:07.738Z,101740.03
2023-01-29T06:36:10.668Z,101742.50
2023-01-29T06:39:13.500Z,101745.00
2023-01-29T06:42:16.434Z,101747.63
2023-01-29T06:45:19.413Z,101744.66
2023-01-29T06:48:23.789Z,101752.97
2023-01-29T06:51:26.684Z,101751.56
2023-01-29T06:54:29.770Z,101753.09
2023-01-29T06:57:32.620Z,101763.56
2023-01-29T07:00:36.325Z,101756.66
2023-01-29T07:03:39.404Z,101761.28
2023-01-29T07:06:42.109Z,101759.50
2023-01-29T07:09:44.831Z,101764.38
2023-01-29T07:12:47.834Z,101762.97
2023-01-29T07:15:50.560Z,101772.59
2023-01-29T07:18:53.416Z,101769.28
2023-01-29T07:21:56.294Z,101768.19
2023-01-29T07:24:59.220Z,101776.63
2023-01-29T07:28:02.492Z,101771.66
2023-01-29T07:31:06.283Z,101767.13
2023-01-29T07:34:09.510Z,101766.91
2023-01-29T07:37:12.475Z,101762.59
2023-01-29T07:40:16.249Z,101765.34
2023-01-29T07:43:19.565Z,101770.22
2023-01-29T07:46:22.460Z,101767.13
2023-01-29T07:49:27.221Z,101772.72
2023-01-29T07:52:31.636Z,101766.91
2023-01-29T07:55:34.527Z,101770.34
2023-01-29T07:58:37.402Z,101775.44
2023-01-29T08:01:40.188Z,101769.00
2023-01-29T08:04:42.988Z,101776.84
2023-01-29T08:07:49.349Z,101774.84
2023-01-29T08:11:03.120Z,101780.53
2023-01-29T08:14:06.025Z,101780.50
2023-01-29T08:17:08.822Z,101778.00
2023-01-29T08:20:19.698Z,101785.22
2023-01-29T08:23:23.307Z,101787.88
2023-01-29T08:26:27.972Z,101791.94
2023-01-29T08:29:31.373Z,101782.16
2023-01-29T08:32:34.316Z,101787.72
2023-01-29T08:35:37.662Z,101799.06
2023-01-29T08:38:40.673Z,101794.09
2023-01-29T08:41:43.901Z,101789.88
2023-01-29T08:44:47.026Z,101775.41
2023-01-29T08:47:50.744Z,101788.94
2023-01-29T08:50:57.105Z,101789.31
2023-01-29T08:54:00.197Z,101793.53
2023-01-29T08:57:03.776Z,101802.22
2023-01-29T09:00:09.508Z,101800.41
2023-01-29T09:03:12.577Z,101793.78
2023-01-29T09:06:15.460Z,101800.81
2023-01-29T09:09:18.700Z,101787.00
2023-01-29T09:12:21.632Z,101787.91
2023-01-29T09:15:24.771Z,101787.44
2023-01-29T09:18:28.481Z,101792.72
2023-01-29T09:21:31.601Z,101786.19
2023-01-29T09:24:35.312Z,101789.63
2023-01-29T09:27:38.267Z,101781.78
2023-01-29T09:30:41.384Z,101778.69
2023-01-29T09:33:44.371Z,101780.50
2023-01-29T09:36:47.318Z,101779.94
2023-01-29T09:39:50.602Z,101769.91
2023-01-29T09:43:43.218Z,101772.75
2023-01-29T09:46:48.707Z,101773.03
2023-01-29T09:50:18.428Z,101783.69
2023-01-29T09:53:34.714Z,101785.22
2023-01-29T09:56:37.619Z,101781.31
2023-01-29T09:59:40.714Z,101775.47
2023-01-29T10:03:03.993Z,101773.38
2023-01-29T10:06:37.407Z,101778.69
2023-01-29T10:10:07.878Z,101776.94
2023-01-29T10:13:37.152Z,101780.22
2023-01-29T10:16:46.254Z,101773.19
2023-01-29T10:20:07.950Z,101774.66
2023-01-29T10:23:38.732Z,101763.72
2023-01-29T10:26:41.751Z,101775.47
2023-01-29T10:29:47.524Z,101770.28
2023-01-29T10:32:50.937Z,101776.47
2023-01-29T10:36:00.307Z,101768.59
2023-01-29T10:39:03.498Z,101773.53
2023-01-29T10:42:34.226Z,101767.00
2023-01-29T10:46:15.600Z,101779.06
2023-01-29T10:49:37.380Z,101785.06
2023-01-29T10:52:58.997Z,101778.06
2023-01-29T10:56:31.371Z,101774.34
2023-01-29T10:59:47.957Z,101770.97
2023-01-29T11:02:52.153Z,101773.28
2023-01-29T11:06:13.085Z,101770.38
2023-01-29T11:09:26.838Z,101767.19
2023-01-29T11:12:32.324Z,101766.31
2023-01-29T11:15:35.275Z,101772.63
2023-01-29T11:18:59.764Z,101767.44
2023-01-29T11:22:04.543Z,101772.84
2023-01-29T11:25:26.307Z,101776.19
2023-01-29T11:28:47.073Z,101773.31
2023-01-29T11:31:50.045Z,101771.47
2023-01-29T11:35:16.370Z,101771.47
2023-01-29T11:38:28.271Z,101777.84
2023-01-29T11:41:31.082Z,101768.19
2023-01-29T11:44:40.674Z,101765.13
2023-01-29T11:47:48.446Z,101765.91
2023-01-29T11:51:02.448Z,101761.56
2023-01-29T11:54:06.622Z,101768.13
2023-01-29T11:57:24.012Z,101758.50
2023-01-29T12:00:29.988Z,101762.38
2023-01-29T12:03:39.772Z,101751.47
2023-01-29T12:06:45.599Z,101753.38
2023-01-29T12:09:57.186Z,101753.06
2023-01-29T12:13:10.098Z,101743.44
2023-01-29T12:16:24.030Z,101743.84
2023-01-29T12:19:35.404Z,101745.38
2023-01-29T12:23:11.473Z,101740.88
2023-01-29T12:26:33.014Z,101741.59
2023-01-29T12:30:13.262Z,101733.28
2023-01-29T12:33:58.538Z,101722.81
2023-01-29T12:37:11.652Z,101720.16
2023-01-29T12:40:17.197Z,101720.31
2023-01-29T12:43:41.416Z,101711.31
2023-01-29T12:46:50.791Z,101730.56
2023-01-29T12:50:02.534Z,101716.41
2023-01-29T12:53:08.712Z,101712.19
2023-01-29T12:56:19.329Z,101714.88
2023-01-29T12:59:37.784Z,101708.00
2023-01-29T13:03:19.623Z,101711.25
2023-01-29T13:06:34.539Z,101694.13
2023-01-29T13:09:41.829Z,101699.00
2023-01-29T13:12:55.951Z,101693.72
2023-01-29T13:16:01.451Z,101684.09
2023-01-29T13:19:24.249Z,101686.59
2023-01-29T13:22:40.759Z,101693.34
2023-01-29T13:25:43.915Z,101687.28
2023-01-29T13:28:48.394Z,101677.41
2023-01-29T13:31:53.708Z,101693.34
2023-01-29T13:35:05.159Z,101683.44
2023-01-29T13:38:25.687Z,101691.63
2023-01-29T13:41:37.351Z,101672.28
2023-01-29T13:44:41.694Z,101665.75
2023-01-29T13:47:45.763Z,101668.53
2023-01-29T13:50:51.512Z,101673.91
2023-01-29T13:54:04.203Z,101671.19
2023-01-29T13:57:35.933Z,101696.91
2023-01-29T14:00:38.676Z,101702.72
2023-01-29T14:04:03.335Z,101700.63
2023-01-29T14:07:48.888Z,101710.88
2023-01-29T14:11:17.323Z,101712.25
2023-01-29T14:15:02.720Z,101706.13
2023-01-29T14:18:08.843Z,101705.44
2023-01-29T14:21:12.043Z,101707.47
2023-01-29T14:24:21.321Z,101703.44
2023-01-29T14:27:28.290Z,101709.78
2023-01-29T14:30:34.507Z,101708.00
2023-01-29T14:33:41.157Z,101711.31
2023-01-29T14:36:47.409Z,101704.59
2023-01-29T14:39:59.562Z,101697.69
2023-01-29T14:43:20.148Z,101697.59
2023-01-29T14:46:35.466Z,101688.91
2023-01-29T14:50:26.377Z,101686.50
2023-01-29T14:53:44.423Z,101685.31
2023-01-29T14:57:06.144Z,101689.00
2023-01-29T15:00:24.376Z,101686.19
2023-01-29T15:03:48.481Z,101691.94
2023-01-29T15:07:32.677Z,101684.03
2023-01-29T15:11:13.235Z,101687.94
2023-01-29T15:14:16.878Z,101677.81
2023-01-29T15:18:02.319Z,101680.28
2023-01-29T15:21:15.257Z,101671.75
2023-01-29T15:24:18.144Z,101666.00
2023-01-29T15:27:20.976Z,101672.22
2023-01-29T15:30:33.717Z,101664.31
2023-01-29T15:33:38.828Z,101669.03
2023-01-29T15:36:41.715Z,101670.59
2023-01-29T15:39:45.634Z,101661.97
2023-01-29T15:42:48.953Z,101662.22
2023-01-29T15:45:54.130Z,101667.88
2023-01-29T15:49:00.462Z,101671.31
2023-01-29T15:52:08.104Z,101673.72
2023-01-29T15:55:15.445Z,101673.28
2023-01-29T15:58:24.531Z,101675.53
2023-01-29T16:01:28.744Z,101671.38
2023-01-29T16:04:32.086Z,101682.44
2023-01-29T16:07:36.355Z,101685.31
2023-01-29T16:10:42.237Z,101672.59
2023-01-29T16:13:47.964Z,101676.38
2023-01-29T16:16:52.647Z,101679.81
2023-01-29T16:20:00.563Z,101685.13
2023-01-29T16:23:05.078Z,101692.06
2023-01-29T16:26:13.398Z,101678.50
2023-01-29T16:29:21.937Z,101687.53
2023-01-29T16:32:25.062Z,101689.09
2023-01-29T16:35:28.154Z,101693.38
2023-01-29T16:38:35.436Z,101686.34
2023-01-29T16:41:38.805Z,101687.78
2023-01-29T16:44:57.866Z,101694.66
2023-01-29T16:48:19.181Z,101697.63
2023-01-29T16:51:30.854Z,101701.31
2023-01-29T16:54:33.893Z,101704.63
2023-01-29T16:57:38.689Z,101698.47
2023-01-29T17:00:53.243Z,101702.41
2023-01-29T17:04:02.224Z,101714.63
2023-01-29T17:07:05.494Z,101710.94
2023-01-29T17:10:16.748Z,101702.50
2023-01-29T17:13:43.073Z,101707.03
2023-01-29T17:16:51.311Z,101709.03
2023-01-29T17:19:54.338Z,101708.81
2023-01-29T17:22:57.397Z,101712.00
2023-01-29T17:26:00.446Z,101708.59
2023-01-29T17:29:03.826Z,101709.06
2023-01-29T17:32:06.963Z,101709.06
2023-01-29T17:35:14.313Z,101707.03
2023-01-29T17:38:26.011Z,101705.97
2023-01-29T17:41:30.805Z,101703.25
2023-01-29T17:44:34.482Z,101705.97
2023-01-29T17:47:37.543Z,101703.13
2023-01-29T17:50:43.705Z,101703.84
2023-01-29T17:53:47.599Z,101702.41
2023-01-29T17:56:52.468Z,101704.06
2023-01-29T17:59:55.548Z,101704.06
2023-01-29T18:03:03.201Z,101706.34
2023-01-29T18:06:10.318Z,101704.41
2023-01-29T18:09:15.015Z,101702.06
2023-01-29T18:12:18.169Z,101699.56
2023-01-29T18:15:21.382Z,101703.47
2023-01-29T18:18:26.235Z,101699.06
2023-01-29T18:21:29.374Z,101694.31
2023-01-29T18:24:32.270Z,101693.50
2023-01-29T18:27:35.337Z,101698.72
2023-01-29T18:30:38.343Z,101694.56
2023-01-29T18:33:41.571Z,101689.34
2023-01-29T18:36:47.765Z,101691.13
2023-01-29T18:39:50.847Z,101687.91
2023-01-29T18:42:53.974Z,101688.84
2023-01-29T18:46:00.109Z,101687.31
2023-01-29T18:49:03.508Z,101685.19
2023-01-29T18:52:07.781Z,101686.72
2023-01-29T18:55:10.615Z,101687.91
2023-01-29T18:58:33.917Z,101687.31
2023-01-29T19:01:37.153Z,101689.69
2023-01-29T19:04:40.915Z,101689.44
2023-01-29T19:07:44.235Z,101684.72
2023-01-29T19:10:47.529Z,101689.94
2023-01-29T19:13:55.093Z,101693.47
2023-01-29T19:16:58.371Z,101691.47
2023-01-29T19:20:04.945Z,101687.56
2023-01-29T19:23:09.058Z,101688.03
2023-01-29T19:26:13.715Z,101682.94
2023-01-29T19:29:18.187Z,101684.81
2023-01-29T19:32:21.332Z,101681.00
2023-01-29T19:35:24.585Z,101678.06
2023-01-29T19:38:28.799Z,101682.44
2023-01-29T19:41:32.886Z,101683.38
2023-01-29T19:44:39.120Z,101681.75
2023-01-29T19:47:43.839Z,101687.56
2023-01-29T19:50:52.675Z,101678.56
2023-01-29T19:53:55.413Z,101682.34
2023-01-29T19:56:58.284Z,101694.31
2023-01-29T20:00:01.827Z,101693.81
2023-01-29T20:03:07.247Z,101684.94
2023-01-29T20:06:11.479Z,101687.81
2023-01-29T20:09:14.867Z,101687.41
2023-01-29T20:12:18.189Z,101689.66
2023-01-29T20:15:22.464Z,101681.50
2023-01-29T20:18:25.868Z,101681.59
2023-01-29T20:21:29.111Z,101679.34
2023-01-29T20:24:34.731Z,101679.22
2023-01-29T20:27:37.999Z,101680.75
2023-01-29T20:30:45.618Z,101678.28
2023-01-29T20:33:48.773Z,101672.81
2023-01-29T20:36:51.780Z,101680.66
2023-01-29T20:40:00.575Z,101668.19
2023-01-29T20:43:05.504Z,101669.81
2023-01-29T20:46:09.733Z,101672.66
2023-01-29T20:49:12.865Z,101672.66
2023-01-29T20:52:15.881Z,101669.22
2023-01-29T20:55:19.042Z,101664.13
2023-01-29T20:58:22.171Z,101660.44
2023-01-29T21:01:25.274Z,101666.00
2023-01-29T21:04:28.426Z,101659.00
2023-01-29T21:07:31.596Z,101658.41
2023-01-29T21:10:34.728Z,101660.06
2023-01-29T21:13:38.082Z,101658.91
2023-01-29T21:16:41.562Z,101664.56
2023-01-29T21:19:44.858Z,101650.56
2023-01-29T21:22:49.352Z,101655.91
2023-01-29T21:25:52.568Z,101652.84
2023-01-29T21:28:56.509Z,101650.25
2023-01-29T21:31:59.703Z,101647.38
2023-01-29T21:35:04.428Z,101649.97
2023-01-29T21:38:07.583Z,101644.25
2023-01-29T21:41:10.699Z,101648.94
2023-01-29T21:44:13.906Z,101644.16
2023-01-29T21:47:17.125Z,101638.81
2023-01-29T21:50:20.888Z,101618.88
2023-01-29T21:53:24.456Z,101611.22
2023-01-29T21:56:27.977Z,101609.31
2023-01-29T21:59:32.767Z,101616.47
2023-01-29T22:02:36.028Z,101606.69
2023-01-29T22:05:39.768Z,101613.34
2023-01-29T22:08:43.080Z,101602.13
2023-01-29T22:11:46.503Z,101590.88
2023-01-29T22:14:50.979Z,101611.00
2023-01-29T22:17:54.055Z,101586.44
2023-01-29T22:20:57.744Z,101594.34
2023-01-29T22:24:00.819Z,101607.69
2023-01-29T22:27:04.058Z,101603.00
2023-01-29T22:30:07.831Z,101608.56
2023-01-29T22:33:11.221Z,101602.81
2023-01-29T22:36:14.148Z,101606.38
2023-01-29T22:39:17.284Z,101605.03
2023-01-29T22:42:20.945Z,101607.13
2023-01-29T22:45:23.937Z,101603.16
2023-01-29T22:48:28.686Z,101601.19
2023-01-29T22:51:32.754Z,101613.28
2023-01-29T22:54:40.969Z,101608.38
2023-01-29T22:57:44.029Z,101606.38
2023-01-29T23:00:51.423Z,101603.69
2023-01-29T23:03:54.758Z,101604.31
2023-01-29T23:06:58.606Z,101597.50
2023-01-29T23:10:01.712Z,101597.63
2023-01-29T23:13:04.821Z,101595.94
2023-01-29T23:16:08.579Z,101599.78
2023-01-29T23:19:12.481Z,101597.75
2023-01-29T23:22:18.322Z,101598.81
2023-01-29T23:25:21.466Z,101588.38
2023-01-29T23:28:24.742Z,101583.09
2023-01-29T23:31:27.802Z,101577.13
2023-01-29T23:34:31.040Z,101589.00
2023-01-29T23:37:34.698Z,101580.09
2023-01-29T23:40:37.654Z,101572.59
2023-01-29T23:43:40.822Z,101568.94
2023-01-29T23:46:44.504Z,101572.69
2023-01-29T23:49:47.605Z,101567.88
2023-01-29T23:52:50.847Z,101551.41
2023-01-29T23:56:03.099Z,101553.94
2023-01-29T23:59:07.316Z,101561.09
